createdAt,value
2022-12-31T00:02:01.799Z,10.77
2022-12-31T00:05:03.655Z,10.80
2022-12-31T00:08:05.370Z,10.85
2022-12-31T00:11:06.936Z,10.85
2022-12-31T00:14:08.603Z,10.82
2022-12-31T00:17:10.165Z,10.83
2022-12-31T00:20:12.049Z,10.79
2022-12-31T00:23:13.565Z,10.76
2022-12-31T00:26:18.257Z,10.76
2022-12-31T00:29:19.725Z,10.77
2022-12-31T00:32:21.251Z,10.75
2022-12-31T00:35:22.756Z,10.73
2022-12-31T00:38:24.212Z,10.68
2022-12-31T00:41:26.957Z,10.70
2022-12-31T00:44:28.447Z,10.62
2022-12-31T00:47:29.982Z,10.67
2022-12-31T00:50:31.587Z,10.57
2022-12-31T00:53:33.706Z,10.58
2022-12-31T00:56:35.163Z,10.55
2022-12-31T00:59:36.609Z,10.50
2022-12-31T01:02:38.253Z,10.50
2022-12-31T01:05:39.869Z,10.48
2022-12-31T01:08:41.414Z,10.47
2022-12-31T01:11:43.695Z,10.42
2022-12-31T01:14:48.106Z,10.38
2022-12-31T01:17:49.661Z,10.43
2022-12-31T01:20:51.254Z,10.38
2022-12-31T01:23:52.795Z,10.32
2022-12-31T01:26:54.971Z,10.38
2022-12-31T01:29:56.509Z,10.34
2022-12-31T01:32:58.270Z,10.28
2022-12-31T01:36:08.670Z,10.28
2022-12-31T01:39:11.144Z,10.34
2022-12-31T01:42:12.781Z,10.36
2022-12-31T01:45:14.354Z,10.29
2022-12-31T01:48:22.355Z,10.27
2022-12-31T01:51:27.456Z,10.24
2022-12-31T01:54:31.226Z,10.21
2022-12-31T01:57:32.880Z,10.17
2022-12-31T02:00:34.883Z,10.14
2022-12-31T02:03:37.423Z,10.11
2022-12-31T02:06:48.715Z,10.11
2022-12-31T02:09:50.683Z,10.09
2022-12-31T02:12:52.671Z,10.03
2022-12-31T02:16:10.604Z,9.96
2022-12-31T02:19:24.212Z,9.95
2022-12-31T02:22:37.664Z,9.90
2022-12-31T02:26:17.932Z,9.88
2022-12-31T02:29:25.607Z,9.88
2022-12-31T02:32:34.670Z,9.88
2022-12-31T02:35:53.778Z,9.87
2022-12-31T02:38:57.416Z,9.90
2022-12-31T02:42:00.352Z,9.87
2022-12-31T02:45:01.909Z,9.83
2022-12-31T02:48:29.242Z,9.89
2022-12-31T02:51:46.474Z,9.88
2022-12-31T02:55:03.180Z,9.86
2022-12-31T02:58:26.675Z,9.90
2022-12-31T03:01:35.499Z,9.81
2022-12-31T03:04:37.302Z,9.77
2022-12-31T03:07:40.862Z,9.76
2022-12-31T03:10:42.423Z,9.73
2022-12-31T03:13:44.029Z,9.72
2022-12-31T03:16:45.527Z,9.70
2022-12-31T03:19:47.460Z,9.67
2022-12-31T03:22:48.958Z,9.62
2022-12-31T03:25:50.822Z,9.59
2022-12-31T03:28:52.312Z,9.57
2022-12-31T03:31:53.900Z,9.51
2022-12-31T03:34:55.525Z,9.45
2022-12-31T03:37:57.309Z,9.39
2022-12-31T03:40:58.959Z,9.38
2022-12-31T03:44:00.557Z,9.34
2022-12-31T03:47:02.148Z,9.32
2022-12-31T03:50:05.236Z,9.27
2022-12-31T03:53:07.086Z,9.24
2022-12-31T03:56:08.745Z,9.22
2022-12-31T03:59:10.403Z,9.20
2022-12-31T04:02:12.330Z,9.18
2022-12-31T04:05:15.032Z,9.15
2022-12-31T04:08:16.520Z,9.12
2022-12-31T04:11:20.989Z,9.16
2022-12-31T04:14:22.754Z,9.16
2022-12-31T04:17:25.085Z,9.14
2022-12-31T04:20:26.531Z,9.13
2022-12-31T04:23:28.071Z,9.12
2022-12-31T04:26:29.959Z,9.14
2022-12-31T04:29:31.427Z,9.20
2022-12-31T04:32:32.932Z,9.19
2022-12-31T04:35:34.511Z,9.18
2022-12-31T04:38:36.069Z,9.14
2022-12-31T04:41:37.598Z,9.09
2022-12-31T04:44:39.177Z,9.03
2022-12-31T04:47:40.735Z,9.02
2022-12-31T04:50:42.281Z,9.01
2022-12-31T04:53:43.959Z,8.98
2022-12-31T04:56:45.509Z,8.91
2022-12-31T04:59:47.054Z,8.87
2022-12-31T05:02:49.605Z,8.89
2022-12-31T05:06:00.545Z,8.87
2022-12-31T05:09:02.218Z,8.88
2022-12-31T05:12:03.880Z,8.87
2022-12-31T05:15:06.196Z,8.86
2022-12-31T05:18:08.578Z,8.88
2022-12-31T05:21:15.311Z,8.91
2022-12-31T05:24:16.786Z,8.94
2022-12-31T05:27:18.441Z,9.02
2022-12-31T05:30:20.282Z,9.07
2022-12-31T05:33:21.834Z,9.15
2022-12-31T05:36:23.398Z,9.32
2022-12-31T05:39:24.936Z,9.39
2022-12-31T05:42:27.049Z,9.50
2022-12-31T05:45:31.032Z,9.64
2022-12-31T05:48:33.090Z,9.80
2022-12-31T05:51:34.702Z,9.84
2022-12-31T05:54:36.387Z,9.85
2022-12-31T05:57:39.208Z,9.90
2022-12-31T06:00:42.494Z,9.97
2022-12-31T06:03:44.159Z,10.09
2022-12-31T06:06:45.885Z,10.28
2022-12-31T06:09:50.457Z,10.41
2022-12-31T06:12:52.159Z,10.49
2022-12-31T06:15:53.915Z,10.53
2022-12-31T06:18:55.546Z,10.61
2022-12-31T06:21:57.201Z,10.77
2022-12-31T06:24:58.715Z,10.96
2022-12-31T06:28:00.286Z,11.03
2022-12-31T06:31:06.933Z,11.05
2022-12-31T06:34:11.689Z,11.06
2022-12-31T06:37:13.320Z,11.09
2022-12-31T06:40:15.061Z,11.19
2022-12-31T06:43:16.799Z,11.24
2022-12-31T06:46:18.409Z,11.31
2022-12-31T06:49:20.141Z,11.41
2022-12-31T06:52:21.837Z,11.44
2022-12-31T06:55:23.757Z,11.43
2022-12-31T06:58:25.640Z,11.47
2022-12-31T07:01:46.082Z,11.54
2022-12-31T07:05:07.760Z,11.60
2022-12-31T07:08:19.428Z,11.57
2022-12-31T07:11:26.621Z,11.63
2022-12-31T07:14:52.961Z,11.71
2022-12-31T07:18:14.905Z,11.72
2022-12-31T07:21:45.489Z,11.81
2022-12-31T07:24:47.850Z,11.87
2022-12-31T07:27:59.936Z,11.86
2022-12-31T07:31:26.972Z,11.87
2022-12-31T07:34:56.891Z,11.87
2022-12-31T07:38:10.271Z,11.96
2022-12-31T07:41:33.460Z,12.00
2022-12-31T07:44:55.012Z,12.03
2022-12-31T07:48:02.265Z,11.95
2022-12-31T07:51:04.811Z,11.98
2022-12-31T15:50:44.129Z,13.16
2022-12-31T15:53:51.587Z,13.27
2022-12-31T15:56:54.119Z,13.25
2022-12-31T16:00:00.322Z,13.37
2022-12-31T16:03:04.330Z,13.31
2022-12-31T16:06:14.949Z,13.34
2022-12-31T16:09:27.226Z,13.38
2022-12-31T16:12:36.038Z,13.32
2022-12-31T16:15:41.305Z,13.31
2022-12-31T16:18:44.069Z,13.31
2022-12-31T16:21:45.938Z,13.45
2022-12-31T16:25:30.174Z,13.38
2022-12-31T16:28:20.520Z,13.34
2022-12-31T16:31:22.137Z,13.37
2022-12-31T16:34:26.444Z,13.34
2022-12-31T16:37:28.834Z,13.38
2022-12-31T16:40:30.580Z,13.52
2022-12-31T16:43:38.145Z,13.49
2022-12-31T16:46:40.670Z,13.45
2022-12-31T16:49:42.693Z,13.43
2022-12-31T16:52:47.025Z,13.48
2022-12-31T16:56:08.352Z,13.38
2022-12-31T16:59:12.832Z,13.39
2022-12-31T17:02:25.724Z,13.35
2022-12-31T17:05:27.946Z,13.25
2022-12-31T17:08:44.572Z,13.27
2022-12-31T17:11:57.764Z,13.37
2022-12-31T17:15:03.067Z,13.40
2022-12-31T17:18:06.071Z,13.39
2022-12-31T17:21:12.076Z,13.40
2022-12-31T17:24:13.881Z,13.39
2022-12-31T17:27:16.314Z,13.45
2022-12-31T17:30:27.579Z,13.41
2022-12-31T17:33:31.063Z,13.49
2022-12-31T17:36:32.701Z,13.44
2022-12-31T17:39:53.641Z,13.66
2022-12-31T17:42:55.425Z,13.78
2022-12-31T17:45:57.085Z,13.71
2022-12-31T17:49:02.052Z,13.63
2022-12-31T17:52:03.814Z,13.65
2022-12-31T17:55:05.575Z,13.71
2022-12-31T17:58:07.692Z,13.81
2022-12-31T18:01:10.027Z,13.80
2022-12-31T18:04:16.330Z,13.81
2022-12-31T18:07:17.863Z,13.70
2022-12-31T18:10:22.546Z,13.61
2022-12-31T18:13:26.313Z,13.58
2022-12-31T18:16:28.420Z,13.59
2022-12-31T18:20:02.953Z,13.57
2022-12-31T18:22:52.082Z,13.71
2022-12-31T18:25:54.048Z,13.60
2022-12-31T18:28:57.895Z,13.66
2022-12-31T18:31:59.417Z,13.62
2022-12-31T18:35:00.949Z,13.68
2022-12-31T18:38:02.975Z,13.71
2022-12-31T18:41:05.314Z,13.69
2022-12-31T18:44:07.372Z,13.67
2022-12-31T18:47:14.301Z,13.70
2022-12-31T18:50:16.525Z,13.71
2022-12-31T18:53:21.999Z,13.71
2022-12-31T18:56:23.515Z,13.75
2022-12-31T18:59:24.980Z,13.82
2022-12-31T19:02:26.470Z,13.73
2022-12-31T19:05:31.155Z,13.66
2022-12-31T19:08:32.711Z,13.62
2022-12-31T19:11:34.487Z,13.75
2022-12-31T19:14:36.032Z,13.64
2022-12-31T19:17:37.588Z,13.59
2022-12-31T19:20:39.613Z,13.57
2022-12-31T19:23:41.117Z,13.60
2022-12-31T19:26:43.531Z,13.63
2022-12-31T19:29:45.265Z,13.66
2022-12-31T19:32:46.867Z,13.58
2022-12-31T19:35:48.675Z,13.73
2022-12-31T19:38:50.275Z,13.82
2022-12-31T19:41:58.520Z,13.79
2022-12-31T19:45:00.814Z,13.80
2022-12-31T19:48:02.346Z,13.75
2022-12-31T19:51:08.596Z,13.82
2022-12-31T19:54:12.745Z,13.83
2022-12-31T19:57:14.182Z,13.95
2022-12-31T20:00:17.936Z,13.84
2022-12-31T20:03:19.610Z,13.72
2022-12-31T20:06:21.134Z,13.62
2022-12-31T20:09:23.192Z,13.66
2022-12-31T20:12:24.690Z,13.61
2022-12-31T20:15:26.245Z,13.54
2022-12-31T20:18:27.761Z,13.78
2022-12-31T20:21:29.560Z,13.76
2022-12-31T20:24:31.202Z,13.71
2022-12-31T20:27:32.750Z,13.75
2022-12-31T20:30:37.567Z,13.71
2022-12-31T20:33:39.359Z,13.62
2022-12-31T20:36:41.058Z,13.55
2022-12-31T20:39:42.905Z,13.61
2022-12-31T20:42:44.503Z,13.65
2022-12-31T20:45:46.028Z,13.59
2022-12-31T20:48:49.064Z,13.63
2022-12-31T20:51:52.302Z,13.60
2022-12-31T20:54:53.990Z,13.67
2022-12-31T20:57:55.575Z,13.62
2022-12-31T21:00:57.167Z,13.62
2022-12-31T21:04:05.925Z,13.63
2022-12-31T21:07:08.360Z,13.63
2022-12-31T21:10:09.882Z,13.60
2022-12-31T21:13:11.460Z,13.58
2022-12-31T21:16:13.051Z,13.63
2022-12-31T21:19:14.762Z,13.63
2022-12-31T21:22:16.507Z,13.69
2022-12-31T21:25:18.151Z,13.66
2022-12-31T21:28:19.724Z,13.66
2022-12-31T21:31:21.477Z,13.57
2022-12-31T21:34:23.142Z,13.68
2022-12-31T21:37:24.743Z,13.75
2022-12-31T21:40:46.755Z,13.71
2022-12-31T21:43:48.318Z,13.68
2022-12-31T21:47:34.058Z,13.71
2022-12-31T21:50:22.511Z,13.66
2022-12-31T21:53:30.458Z,13.62
2022-12-31T21:56:37.586Z,13.76
2022-12-31T21:59:44.710Z,13.66
2022-12-31T22:02:59.149Z,13.66
2022-12-31T22:06:04.164Z,13.66
2022-12-31T22:09:05.774Z,13.60
2022-12-31T22:12:07.467Z,13.71
2022-12-31T22:15:15.467Z,13.67
2022-12-31T22:18:17.821Z,13.71
2022-12-31T22:21:21.735Z,13.77
2022-12-31T22:24:23.351Z,13.80
2022-12-31T22:27:29.081Z,13.75
2022-12-31T22:30:31.962Z,13.81
2022-12-31T22:33:33.569Z,13.70
2022-12-31T22:36:35.171Z,13.75
2022-12-31T22:39:43.334Z,13.88
2022-12-31T22:42:46.325Z,13.85
2022-12-31T22:45:47.875Z,13.80
2022-12-31T22:48:51.285Z,13.79
2022-12-31T22:51:56.859Z,13.75
2022-12-31T22:55:00.337Z,13.66
2022-12-31T22:58:01.858Z,13.74
2022-12-31T23:01:07.590Z,13.76
2022-12-31T23:04:09.236Z,13.70
2022-12-31T23:07:10.769Z,13.76
2022-12-31T23:10:12.773Z,13.72
2022-12-31T23:13:14.302Z,13.67
2022-12-31T23:16:15.898Z,13.57
2022-12-31T23:19:17.558Z,13.59
2022-12-31T23:22:19.173Z,13.57
2022-12-31T23:25:23.021Z,13.52
2022-12-31T23:28:25.116Z,13.48
2022-12-31T23:31:26.743Z,13.53
2022-12-31T23:34:28.268Z,13.44
2022-12-31T23:37:29.812Z,13.45
2022-12-31T23:40:31.323Z,13.43
2022-12-31T23:43:32.860Z,13.49
2022-12-31T23:46:34.483Z,13.43
2022-12-31T23:49:36.342Z,13.39
2022-12-31T23:52:37.858Z,13.43
2022-12-31T23:55:39.303Z,13.36
2022-12-31T23:58:40.813Z,13.45
